Ida Theresa — V7RQ9 — position and weather

sailwx.info

Track history (hours):
 
Tides and Currents Weather Stations Pressure Air Temp Water Temp Dewpoint Dewpoint Depression Visibility Wind Speed Wind Dir Waves Ship Positions

Ida Theresa

Last reported at 2017-May-29 14:51 UTC. Time now 2017-Jun-28 20:57 UTC.
Position N 30°11' E 126°30'.
Warning: this ship's position is 30 days out of date.

Length 121 m; draft 8.4 m.

Type: Ship (hazmat cat C). MMSI: 538090386.

Date/timePositionNaut miles runAvg speedWind from/ knotsBaromVisibWave heightAir tempDewpointWater temp
2017-May-29 14:51N 30°11' E 126°30'512.3
2017-May-29 14:25N 30°15' E 126°33'1412.3
2017-May-29 13:18N 30°28' E 126°40'612.6
2017-May-29 12:48N 30°33' E 126°44'2212.9
2017-May-29 11:06N 30°53' E 126°54'413.2
2017-May-29 10:50N 30°57' E 126°56'411.6
2017-May-29 10:30N 31°00' E 126°57'8612.6
2017-May-29 03:37N 32°18' E 127°42'112.0
2017-May-29 03:30N 32°19' E 127°42'711.9
2017-May-29 02:57N 32°25' E 127°46'812.0
2017-May-29 02:20N 32°32' E 127°50'4312.1
2017-May-28 22:45N 33°11' E 128°11'311.8
2017-May-28 22:27N 33°14' E 128°14'  
Track history (hours):
 
Tides and Currents Weather Stations Pressure Air Temp Water Temp Dewpoint Dewpoint Depression Visibility Wind Speed Wind Dir Waves Ship Positions

Ida Theresa

Last reported at 2017-May-29 14:51 UTC. Time now 2017-Jun-28 20:57 UTC.
Position N 30°11' E 126°30'.
Warning: this ship's position is 30 days out of date.

Length 121 m; draft 8.4 m.

Type: Ship (hazmat cat C). MMSI: 538090386.

Date/timePositionNaut miles runAvg speedWind from/ knotsBaromVisibWave heightAir tempDewpointWater temp
2017-May-29 14:51N 30°11' E 126°30'512.3
2017-May-29 14:25N 30°15' E 126°33'1412.3
2017-May-29 13:18N 30°28' E 126°40'612.6
2017-May-29 12:48N 30°33' E 126°44'2212.9
2017-May-29 11:06N 30°53' E 126°54'413.2
2017-May-29 10:50N 30°57' E 126°56'411.6
2017-May-29 10:30N 31°00' E 126°57'8612.6
2017-May-29 03:37N 32°18' E 127°42'112.0
2017-May-29 03:30N 32°19' E 127°42'711.9
2017-May-29 02:57N 32°25' E 127°46'812.0
2017-May-29 02:20N 32°32' E 127°50'4312.1
2017-May-28 22:45N 33°11' E 128°11'311.8
2017-May-28 22:27N 33°14' E 128°14'  

Dump ship's entire track history